sensor_id;sensor_type;location;lat;lon;timestamp;temperature;humidity
8214;DHT22;4148;47.974;7.824;2023-03-23T00:02:14;13.50;99.90
8214;DHT22;4148;47.974;7.824;2023-03-23T00:04:41;13.50;99.90
8214;DHT22;4148;47.974;7.824;2023-03-23T00:07:09;13.40;99.90
8214;DHT22;4148;47.974;7.824;2023-03-23T00:09:38;13.30;99.90
8214;DHT22;4148;47.974;7.824;2023-03-23T00:12:08;13.40;99.90
8214;DHT22;4148;47.974;7.824;2023-03-23T00:14:37;13.40;99.90
8214;DHT22;4148;47.974;7.824;2023-03-23T00:17:08;13.30;99.90
8214;DHT22;4148;47.974;7.824;2023-03-23T00:19:37;13.30;99.90
8214;DHT22;4148;47.974;7.824;2023-03-23T00:22:12;13.50;99.90
8214;DHT22;4148;47.974;7.824;2023-03-23T00:24:39;13.60;99.90
8214;DHT22;4148;47.974;7.824;2023-03-23T00:27:07;13.60;99.90
8214;DHT22;4148;47.974;7.824;2023-03-23T00:29:38;13.70;99.90
8214;DHT22;4148;47.974;7.824;2023-03-23T00:32:05;14.20;99.90
8214;DHT22;4148;47.974;7.824;2023-03-23T00:34:32;14.40;99.90
8214;DHT22;4148;47.974;7.824;2023-03-23T00:37:00;14.50;99.90
8214;DHT22;4148;47.974;7.824;2023-03-23T00:39:28;14.70;99.90
8214;DHT22;4148;47.974;7.824;2023-03-23T00:41:55;14.60;99.90
8214;DHT22;4148;47.974;7.824;2023-03-23T00:44:28;14.80;99.90
8214;DHT22;4148;47.974;7.824;2023-03-23T00:46:56;14.90;99.90
8214;DHT22;4148;47.974;7.824;2023-03-23T00:49:25;14.90;99.90
8214;DHT22;4148;47.974;7.824;2023-03-23T00:51:52;15.00;99.90
8214;DHT22;4148;47.974;7.824;2023-03-23T00:54:19;15.00;99.90
8214;DHT22;4148;47.974;7.824;2023-03-23T00:56:46;15.10;99.90
8214;DHT22;4148;47.974;7.824;2023-03-23T00:59:13;15.00;99.90
8214;DHT22;4148;47.974;7.824;2023-03-23T01:01:42;15.10;99.90
8214;DHT22;4148;47.974;7.824;2023-03-23T01:04:08;15.10;99.90
8214;DHT22;4148;47.974;7.824;2023-03-23T01:06:39;15.20;99.90
8214;DHT22;4148;47.974;7.824;2023-03-23T01:09:08;15.30;99.90
8214;DHT22;4148;47.974;7.824;2023-03-23T01:11:35;15.30;99.90
8214;DHT22;4148;47.974;7.824;2023-03-23T01:14:02;15.40;99.90
8214;DHT22;4148;47.974;7.824;2023-03-23T01:16:29;15.50;99.90
8214;DHT22;4148;47.974;7.824;2023-03-23T01:18:57;15.50;99.90
8214;DHT22;4148;47.974;7.824;2023-03-23T01:21:24;15.60;99.90
8214;DHT22;4148;47.974;7.824;2023-03-23T01:23:51;15.60;99.90
8214;DHT22;4148;47.974;7.824;2023-03-23T01:26:20;15.50;99.90
8214;DHT22;4148;47.974;7.824;2023-03-23T01:28:47;15.50;99.90
8214;DHT22;4148;47.974;7.824;2023-03-23T01:31:16;15.60;99.90
8214;DHT22;4148;47.974;7.824;2023-03-23T01:33:44;15.60;99.90
8214;DHT22;4148;47.974;7.824;2023-03-23T01:36:13;15.60;99.90
8214;DHT22;4148;47.974;7.824;2023-03-23T01:38:42;15.70;99.90
8214;DHT22;4148;47.974;7.824;2023-03-23T01:41:09;15.80;99.90
8214;DHT22;4148;47.974;7.824;2023-03-23T01:43:52;15.80;99.90
8214;DHT22;4148;47.974;7.824;2023-03-23T01:46:19;15.90;99.90
8214;DHT22;4148;47.974;7.824;2023-03-23T01:48:49;15.90;99.90
8214;DHT22;4148;47.974;7.824;2023-03-23T01:51:19;15.90;99.90
8214;DHT22;4148;47.974;7.824;2023-03-23T01:53:48;15.80;99.90
8214;DHT22;4148;47.974;7.824;2023-03-23T01:56:20;15.80;99.90
8214;DHT22;4148;47.974;7.824;2023-03-23T01:58:51;15.90;99.90
8214;DHT22;4148;47.974;7.824;2023-03-23T02:01:18;15.90;99.90
8214;DHT22;4148;47.974;7.824;2023-03-23T02:03:47;15.90;99.90
8214;DHT22;4148;47.974;7.824;2023-03-23T02:06:16;15.80;99.90
8214;DHT22;4148;47.974;7.824;2023-03-23T02:08:43;15.80;99.90
8214;DHT22;4148;47.974;7.824;2023-03-23T02:11:13;15.90;99.90
8214;DHT22;4148;47.974;7.824;2023-03-23T02:13:40;15.90;99.90
8214;DHT22;4148;47.974;7.824;2023-03-23T02:16:11;16.00;99.90
8214;DHT22;4148;47.974;7.824;2023-03-23T02:18:49;16.10;99.90
8214;DHT22;4148;47.974;7.824;2023-03-23T02:21:53;16.20;99.90
8214;DHT22;4148;47.974;7.824;2023-03-23T02:27:52;16.30;99.90
8214;DHT22;4148;47.974;7.824;2023-03-23T02:30:35;16.30;99.90
8214;DHT22;4148;47.974;7.824;2023-03-23T02:33:36;16.10;99.90
8214;DHT22;4148;47.974;7.824;2023-03-23T02:36:12;16.20;99.90
8214;DHT22;4148;47.974;7.824;2023-03-23T02:38:43;16.20;99.90
8214;DHT22;4148;47.974;7.824;2023-03-23T02:41:18;16.20;99.90
8214;DHT22;4148;47.974;7.824;2023-03-23T02:43:47;16.30;99.90
8214;DHT22;4148;47.974;7.824;2023-03-23T02:46:15;16.30;99.90
8214;DHT22;4148;47.974;7.824;2023-03-23T02:48:44;16.30;99.90
8214;DHT22;4148;47.974;7.824;2023-03-23T02:51:14;16.30;99.90
8214;DHT22;4148;47.974;7.824;2023-03-23T02:53:43;16.30;99.90
8214;DHT22;4148;47.974;7.824;2023-03-23T02:56:11;16.20;99.90
8214;DHT22;4148;47.974;7.824;2023-03-23T02:58:40;16.20;99.90
8214;DHT22;4148;47.974;7.824;2023-03-23T03:01:47;16.20;99.90
8214;DHT22;4148;47.974;7.824;2023-03-23T03:04:19;16.20;99.90
8214;DHT22;4148;47.974;7.824;2023-03-23T03:06:56;16.10;99.90
8214;DHT22;4148;47.974;7.824;2023-03-23T03:09:33;16.00;99.90
8214;DHT22;4148;47.974;7.824;2023-03-23T03:12:07;16.00;99.90
8214;DHT22;4148;47.974;7.824;2023-03-23T03:14:40;16.10;99.90
8214;DHT22;4148;47.974;7.824;2023-03-23T03:17:12;16.30;99.90
8214;DHT22;4148;47.974;7.824;2023-03-23T03:19:43;16.40;99.90
8214;DHT22;4148;47.974;7.824;2023-03-23T03:22:12;16.50;99.90
8214;DHT22;4148;47.974;7.824;2023-03-23T03:24:41;16.50;99.90
8214;DHT22;4148;47.974;7.824;2023-03-23T03:27:11;16.50;99.90
8214;DHT22;4148;47.974;7.824;2023-03-23T03:29:41;16.40;99.90
8214;DHT22;4148;47.974;7.824;2023-03-23T03:32:11;16.50;99.90
8214;DHT22;4148;47.974;7.824;2023-03-23T03:34:39;16.50;99.90
8214;DHT22;4148;47.974;7.824;2023-03-23T03:37:07;16.60;99.90
8214;DHT22;4148;47.974;7.824;2023-03-23T03:39:34;16.50;99.90
8214;DHT22;4148;47.974;7.824;2023-03-23T03:42:02;16.60;99.90
8214;DHT22;4148;47.974;7.824;2023-03-23T03:44:28;16.60;99.90
8214;DHT22;4148;47.974;7.824;2023-03-23T03:46:55;16.60;99.90
8214;DHT22;4148;47.974;7.824;2023-03-23T03:49:22;16.70;99.90
8214;DHT22;4148;47.974;7.824;2023-03-23T03:51:49;16.60;99.90
8214;DHT22;4148;47.974;7.824;2023-03-23T03:54:17;16.50;99.90
8214;DHT22;4148;47.974;7.824;2023-03-23T03:56:44;16.70;99.90
8214;DHT22;4148;47.974;7.824;2023-03-23T03:59:11;16.60;99.90
8214;DHT22;4148;47.974;7.824;2023-03-23T04:01:38;16.70;99.90
8214;DHT22;4148;47.974;7.824;2023-03-23T04:04:05;16.50;99.90
8214;DHT22;4148;47.974;7.824;2023-03-23T04:06:32;16.60;99.90
8214;DHT22;4148;47.974;7.824;2023-03-23T04:09:03;16.60;99.90
8214;DHT22;4148;47.974;7.824;2023-03-23T04:11:33;16.60;99.90
8214;DHT22;4148;47.974;7.824;2023-03-23T04:13:59;16.60;99.90
8214;DHT22;4148;47.974;7.824;2023-03-23T04:16:26;16.50;99.90
8214;DHT22;4148;47.974;7.824;2023-03-23T04:18:55;16.40;99.90
8214;DHT22;4148;47.974;7.824;2023-03-23T04:21:22;16.50;99.90
8214;DHT22;4148;47.974;7.824;2023-03-23T04:23:54;16.60;99.90
8214;DHT22;4148;47.974;7.824;2023-03-23T04:26:21;16.60;99.90
8214;DHT22;4148;47.974;7.824;2023-03-23T04:28:49;16.50;99.90
8214;DHT22;4148;47.974;7.824;2023-03-23T04:31:17;16.40;99.90
8214;DHT22;4148;47.974;7.824;2023-03-23T04:33:44;16.30;99.90
8214;DHT22;4148;47.974;7.824;2023-03-23T04:36:12;16.40;99.90
8214;DHT22;4148;47.974;7.824;2023-03-23T04:38:41;16.50;99.90
8214;DHT22;4148;47.974;7.824;2023-03-23T04:41:08;16.60;99.90
8214;DHT22;4148;47.974;7.824;2023-03-23T04:43:35;16.50;99.90
8214;DHT22;4148;47.974;7.824;2023-03-23T04:46:08;16.50;99.90
8214;DHT22;4148;47.974;7.824;2023-03-23T04:48:35;16.50;99.90
8214;DHT22;4148;47.974;7.824;2023-03-23T04:51:05;16.40;99.90
8214;DHT22;4148;47.974;7.824;2023-03-23T04:53:32;16.50;99.90
8214;DHT22;4148;47.974;7.824;2023-03-23T04:55:59;16.40;99.90
8214;DHT22;4148;47.974;7.824;2023-03-23T04:58:27;16.30;99.90
8214;DHT22;4148;47.974;7.824;2023-03-23T05:00:55;16.40;99.90
8214;DHT22;4148;47.974;7.824;2023-03-23T05:03:23;16.60;99.90
8214;DHT22;4148;47.974;7.824;2023-03-23T05:05:50;16.40;99.90
8214;DHT22;4148;47.974;7.824;2023-03-23T05:08:19;16.40;99.90
8214;DHT22;4148;47.974;7.824;2023-03-23T05:10:52;16.30;99.90
8214;DHT22;4148;47.974;7.824;2023-03-23T05:13:19;16.20;99.90
8214;DHT22;4148;47.974;7.824;2023-03-23T05:15:46;16.20;99.90
8214;DHT22;4148;47.974;7.824;2023-03-23T05:18:13;16.20;99.90
8214;DHT22;4148;47.974;7.824;2023-03-23T05:20:41;16.10;99.90
8214;DHT22;4148;47.974;7.824;2023-03-23T05:23:08;16.10;99.90
8214;DHT22;4148;47.974;7.824;2023-03-23T05:25:35;16.10;99.90
8214;DHT22;4148;47.974;7.824;2023-03-23T05:28:05;16.00;99.90
8214;DHT22;4148;47.974;7.824;2023-03-23T05:30:32;16.10;99.90
8214;DHT22;4148;47.974;7.824;2023-03-23T05:33:00;16.10;99.90
8214;DHT22;4148;47.974;7.824;2023-03-23T05:35:27;15.90;99.90
8214;DHT22;4148;47.974;7.824;2023-03-23T05:37:56;16.00;99.90
8214;DHT22;4148;47.974;7.824;2023-03-23T05:40:23;16.00;99.90
8214;DHT22;4148;47.974;7.824;2023-03-23T05:42:51;16.00;99.90
8214;DHT22;4148;47.974;7.824;2023-03-23T05:45:20;16.00;99.90
8214;DHT22;4148;47.974;7.824;2023-03-23T05:47:48;16.00;99.90
8214;DHT22;4148;47.974;7.824;2023-03-23T05:50:15;15.90;99.90
8214;DHT22;4148;47.974;7.824;2023-03-23T05:52:43;15.90;99.90
8214;DHT22;4148;47.974;7.824;2023-03-23T05:55:11;15.90;99.90
8214;DHT22;4148;47.974;7.824;2023-03-23T05:57:38;15.90;99.90
8214;DHT22;4148;47.974;7.824;2023-03-23T06:00:06;15.90;99.90
8214;DHT22;4148;47.974;7.824;2023-03-23T06:02:44;15.90;99.90
8214;DHT22;4148;47.974;7.824;2023-03-23T06:05:11;15.90;99.90
8214;DHT22;4148;47.974;7.824;2023-03-23T06:07:39;16.00;99.90
8214;DHT22;4148;47.974;7.824;2023-03-23T06:10:07;16.00;99.90
8214;DHT22;4148;47.974;7.824;2023-03-23T06:12:35;15.90;99.90
8214;DHT22;4148;47.974;7.824;2023-03-23T06:15:03;15.80;99.90
8214;DHT22;4148;47.974;7.824;2023-03-23T06:17:32;15.70;99.90
8214;DHT22;4148;47.974;7.824;2023-03-23T06:19:58;15.70;99.90
8214;DHT22;4148;47.974;7.824;2023-03-23T06:22:25;15.80;99.90
8214;DHT22;4148;47.974;7.824;2023-03-23T06:24:52;15.80;99.90
8214;DHT22;4148;47.974;7.824;2023-03-23T06:27:22;15.70;99.90
8214;DHT22;4148;47.974;7.824;2023-03-23T06:29:50;15.80;99.90
8214;DHT22;4148;47.974;7.824;2023-03-23T06:32:17;15.70;99.90
8214;DHT22;4148;47.974;7.824;2023-03-23T06:34:44;15.70;99.90
8214;DHT22;4148;47.974;7.824;2023-03-23T06:37:12;15.70;99.90
8214;DHT22;4148;47.974;7.824;2023-03-23T06:39:38;15.80;99.90
8214;DHT22;4148;47.974;7.824;2023-03-23T06:42:09;15.70;99.90
8214;DHT22;4148;47.974;7.824;2023-03-23T06:44:36;15.80;99.90
8214;DHT22;4148;47.974;7.824;2023-03-23T06:47:05;15.70;99.90
8214;DHT22;4148;47.974;7.824;2023-03-23T06:49:33;15.70;99.90
8214;DHT22;4148;47.974;7.824;2023-03-23T06:52:00;15.90;99.90
8214;DHT22;4148;47.974;7.824;2023-03-23T06:54:27;15.80;99.90
8214;DHT22;4148;47.974;7.824;2023-03-23T06:56:54;15.80;99.90
8214;DHT22;4148;47.974;7.824;2023-03-23T06:59:21;15.80;99.90
8214;DHT22;4148;47.974;7.824;2023-03-23T07:01:48;15.80;99.90
8214;DHT22;4148;47.974;7.824;2023-03-23T07:04:16;15.80;99.90
8214;DHT22;4148;47.974;7.824;2023-03-23T07:06:43;15.80;99.90
8214;DHT22;4148;47.974;7.824;2023-03-23T07:09:10;15.70;99.90
8214;DHT22;4148;47.974;7.824;2023-03-23T07:11:37;15.70;99.90
8214;DHT22;4148;47.974;7.824;2023-03-23T07:14:04;15.70;99.90
8214;DHT22;4148;47.974;7.824;2023-03-23T07:16:31;15.70;99.90
8214;DHT22;4148;47.974;7.824;2023-03-23T07:18:58;15.70;99.90
8214;DHT22;4148;47.974;7.824;2023-03-23T07:21:26;15.80;99.90
8214;DHT22;4148;47.974;7.824;2023-03-23T07:23:53;15.70;99.90
8214;DHT22;4148;47.974;7.824;2023-03-23T07:26:19;15.70;99.90
8214;DHT22;4148;47.974;7.824;2023-03-23T07:28:47;15.60;99.90
8214;DHT22;4148;47.974;7.824;2023-03-23T07:31:13;15.70;99.90
8214;DHT22;4148;47.974;7.824;2023-03-23T07:33:40;15.60;99.90
8214;DHT22;4148;47.974;7.824;2023-03-23T07:36:08;15.50;99.90
8214;DHT22;4148;47.974;7.824;2023-03-23T07:38:36;15.60;99.90
8214;DHT22;4148;47.974;7.824;2023-03-23T07:41:04;15.50;99.90
8214;DHT22;4148;47.974;7.824;2023-03-23T07:43:31;15.30;99.90
8214;DHT22;4148;47.974;7.824;2023-03-23T07:45:58;15.30;99.90
8214;DHT22;4148;47.974;7.824;2023-03-23T07:48:25;15.20;99.90
8214;DHT22;4148;47.974;7.824;2023-03-23T07:53:19;15.10;99.90
8214;DHT22;4148;47.974;7.824;2023-03-23T07:55:48;15.20;99.90
8214;DHT22;4148;47.974;7.824;2023-03-23T07:58:15;15.00;99.90
8214;DHT22;4148;47.974;7.824;2023-03-23T08:00:45;14.90;99.90
8214;DHT22;4148;47.974;7.824;2023-03-23T08:03:12;14.80;99.90
8214;DHT22;4148;47.974;7.824;2023-03-23T08:05:39;14.80;99.90
8214;DHT22;4148;47.974;7.824;2023-03-23T08:08:08;14.80;99.90
8214;DHT22;4148;47.974;7.824;2023-03-23T08:10:35;14.80;99.90
8214;DHT22;4148;47.974;7.824;2023-03-23T08:13:04;14.70;99.90
8214;DHT22;4148;47.974;7.824;2023-03-23T08:15:31;14.60;99.90
8214;DHT22;4148;47.974;7.824;2023-03-23T08:17:59;14.70;99.90
8214;DHT22;4148;47.974;7.824;2023-03-23T08:20:26;14.80;99.90
8214;DHT22;4148;47.974;7.824;2023-03-23T08:22:55;14.70;99.90
8214;DHT22;4148;47.974;7.824;2023-03-23T08:25:23;14.60;1.00
8214;DHT22;4148;47.974;7.824;2023-03-23T08:27:51;14.50;1.00
8214;DHT22;4148;47.974;7.824;2023-03-23T08:30:21;14.60;99.90
8214;DHT22;4148;47.974;7.824;2023-03-23T08:32:49;14.50;99.90
8214;DHT22;4148;47.974;7.824;2023-03-23T08:35:17;14.50;99.90
8214;DHT22;4148;47.974;7.824;2023-03-23T08:37:45;14.50;99.90
8214;DHT22;4148;47.974;7.824;2023-03-23T08:40:17;14.50;99.90
8214;DHT22;4148;47.974;7.824;2023-03-23T08:42:46;14.50;99.90
8214;DHT22;4148;47.974;7.824;2023-03-23T08:45:15;14.40;99.90
8214;DHT22;4148;47.974;7.824;2023-03-23T08:47:44;14.50;99.90
8214;DHT22;4148;47.974;7.824;2023-03-23T08:50:14;14.50;99.90
8214;DHT22;4148;47.974;7.824;2023-03-23T08:52:42;14.50;99.90
8214;DHT22;4148;47.974;7.824;2023-03-23T08:55:09;14.50;99.90
8214;DHT22;4148;47.974;7.824;2023-03-23T08:57:37;14.50;99.90
8214;DHT22;4148;47.974;7.824;2023-03-23T09:00:05;14.40;99.90
8214;DHT22;4148;47.974;7.824;2023-03-23T09:02:41;14.40;99.90
8214;DHT22;4148;47.974;7.824;2023-03-23T09:05:10;14.50;99.90
8214;DHT22;4148;47.974;7.824;2023-03-23T09:07:37;14.50;99.90
8214;DHT22;4148;47.974;7.824;2023-03-23T09:10:05;14.70;99.90
8214;DHT22;4148;47.974;7.824;2023-03-23T09:12:32;14.80;99.90
8214;DHT22;4148;47.974;7.824;2023-03-23T09:15:00;15.00;99.90
8214;DHT22;4148;47.974;7.824;2023-03-23T09:17:30;15.10;99.90
8214;DHT22;4148;47.974;7.824;2023-03-23T09:19:57;15.20;99.90
8214;DHT22;4148;47.974;7.824;2023-03-23T09:22:25;15.30;99.90
8214;DHT22;4148;47.974;7.824;2023-03-23T09:24:53;15.40;99.90
8214;DHT22;4148;47.974;7.824;2023-03-23T09:27:20;15.40;99.90
8214;DHT22;4148;47.974;7.824;2023-03-23T09:29:46;15.40;99.90
8214;DHT22;4148;47.974;7.824;2023-03-23T09:32:14;15.60;99.90
8214;DHT22;4148;47.974;7.824;2023-03-23T09:34:41;15.80;99.90
8214;DHT22;4148;47.974;7.824;2023-03-23T09:37:08;15.90;99.90
8214;DHT22;4148;47.974;7.824;2023-03-23T09:39:36;16.20;99.90
8214;DHT22;4148;47.974;7.824;2023-03-23T09:42:14;16.40;99.90
8214;DHT22;4148;47.974;7.824;2023-03-23T09:44:53;16.40;99.90
8214;DHT22;4148;47.974;7.824;2023-03-23T09:47:30;16.40;99.90
8214;DHT22;4148;47.974;7.824;2023-03-23T09:50:04;16.40;99.90
8214;DHT22;4148;47.974;7.824;2023-03-23T09:52:39;16.60;99.90
8214;DHT22;4148;47.974;7.824;2023-03-23T09:55:11;16.70;99.90
8214;DHT22;4148;47.974;7.824;2023-03-23T09:57:47;16.80;99.90
8214;DHT22;4148;47.974;7.824;2023-03-23T10:00:18;16.80;99.90
8214;DHT22;4148;47.974;7.824;2023-03-23T10:02:52;16.90;99.90
8214;DHT22;4148;47.974;7.824;2023-03-23T10:05:29;16.90;99.90
8214;DHT22;4148;47.974;7.824;2023-03-23T10:07:56;16.90;99.90
8214;DHT22;4148;47.974;7.824;2023-03-23T10:10:29;16.90;99.90
8214;DHT22;4148;47.974;7.824;2023-03-23T10:13:01;16.90;99.90
8214;DHT22;4148;47.974;7.824;2023-03-23T10:15:33;17.00;99.90
8214;DHT22;4148;47.974;7.824;2023-03-23T10:18:02;17.10;99.90
8214;DHT22;4148;47.974;7.824;2023-03-23T10:20:37;17.00;99.90
8214;DHT22;4148;47.974;7.824;2023-03-23T10:23:20;17.00;99.90
8214;DHT22;4148;47.974;7.824;2023-03-23T10:25:54;16.90;99.90
8214;DHT22;4148;47.974;7.824;2023-03-23T10:28:35;17.10;99.90
8214;DHT22;4148;47.974;7.824;2023-03-23T10:31:03;17.20;99.90
8214;DHT22;4148;47.974;7.824;2023-03-23T10:33:36;17.40;99.90
8214;DHT22;4148;47.974;7.824;2023-03-23T10:36:07;17.50;99.90
8214;DHT22;4148;47.974;7.824;2023-03-23T10:38:38;17.60;99.90
8214;DHT22;4148;47.974;7.824;2023-03-23T10:41:11;17.70;99.90
8214;DHT22;4148;47.974;7.824;2023-03-23T10:43:38;17.80;99.90
8214;DHT22;4148;47.974;7.824;2023-03-23T10:46:15;18.00;99.50
8214;DHT22;4148;47.974;7.824;2023-03-23T10:48:48;18.10;98.60
8214;DHT22;4148;47.974;7.824;2023-03-23T10:51:25;18.10;99.30
8214;DHT22;4148;47.974;7.824;2023-03-23T10:53:57;18.00;99.90
8214;DHT22;4148;47.974;7.824;2023-03-23T10:56:27;18.10;99.50
8214;DHT22;4148;47.974;7.824;2023-03-23T10:58:55;18.00;99.90
8214;DHT22;4148;47.974;7.824;2023-03-23T11:01:30;18.00;99.90
8214;DHT22;4148;47.974;7.824;2023-03-23T11:03:57;18.10;99.90
8214;DHT22;4148;47.974;7.824;2023-03-23T11:06:27;18.20;99.90
8214;DHT22;4148;47.974;7.824;2023-03-23T11:08:58;18.20;99.90
8214;DHT22;4148;47.974;7.824;2023-03-23T11:11:28;18.30;99.00
8214;DHT22;4148;47.974;7.824;2023-03-23T11:14:00;18.20;99.90
8214;DHT22;4148;47.974;7.824;2023-03-23T11:16:29;18.10;99.90
8214;DHT22;4148;47.974;7.824;2023-03-23T11:18:57;18.00;99.80
8214;DHT22;4148;47.974;7.824;2023-03-23T11:21:26;18.00;99.90
8214;DHT22;4148;47.974;7.824;2023-03-23T11:23:55;18.10;99.90
8214;DHT22;4148;47.974;7.824;2023-03-23T11:26:28;18.10;99.90
8214;DHT22;4148;47.974;7.824;2023-03-23T11:28:58;18.10;99.90
8214;DHT22;4148;47.974;7.824;2023-03-23T11:31:29;18.00;99.90
8214;DHT22;4148;47.974;7.824;2023-03-23T11:33:58;18.00;99.90
8214;DHT22;4148;47.974;7.824;2023-03-23T11:36:32;18.00;99.90
8214;DHT22;4148;47.974;7.824;2023-03-23T11:38:59;18.10;99.90
8214;DHT22;4148;47.974;7.824;2023-03-23T11:41:34;18.10;99.90
8214;DHT22;4148;47.974;7.824;2023-03-23T11:44:09;18.20;99.90
8214;DHT22;4148;47.974;7.824;2023-03-23T11:46:47;18.40;99.90
8214;DHT22;4148;47.974;7.824;2023-03-23T11:49:25;18.50;99.90
8214;DHT22;4148;47.974;7.824;2023-03-23T11:51:55;18.70;99.60
8214;DHT22;4148;47.974;7.824;2023-03-23T11:54:30;18.70;98.60
8214;DHT22;4148;47.974;7.824;2023-03-23T11:56:58;18.70;99.80
8214;DHT22;4148;47.974;7.824;2023-03-23T11:59:31;18.60;99.90
8214;DHT22;4148;47.974;7.824;2023-03-23T12:02:05;18.60;99.80
8214;DHT22;4148;47.974;7.824;2023-03-23T12:04:40;18.60;99.90
8214;DHT22;4148;47.974;7.824;2023-03-23T12:07:26;18.60;99.60
8214;DHT22;4148;47.974;7.824;2023-03-23T12:10:04;18.60;99.90
8214;DHT22;4148;47.974;7.824;2023-03-23T12:12:40;18.60;99.80
8214;DHT22;4148;47.974;7.824;2023-03-23T12:15:17;18.50;99.80
8214;DHT22;4148;47.974;7.824;2023-03-23T12:17:51;18.40;99.10
8214;DHT22;4148;47.974;7.824;2023-03-23T12:20:28;18.50;99.90
8214;DHT22;4148;47.974;7.824;2023-03-23T12:23:08;18.50;99.90
8214;DHT22;4148;47.974;7.824;2023-03-23T12:25:52;18.60;99.60
8214;DHT22;4148;47.974;7.824;2023-03-23T12:28:32;18.60;98.40
8214;DHT22;4148;47.974;7.824;2023-03-23T12:31:05;18.60;98.70
8214;DHT22;4148;47.974;7.824;2023-03-23T12:33:44;18.70;98.30
8214;DHT22;4148;47.974;7.824;2023-03-23T12:36:24;18.60;97.00
8214;DHT22;4148;47.974;7.824;2023-03-23T12:39:29;18.60;97.40
8214;DHT22;4148;47.974;7.824;2023-03-23T12:42:01;18.50;98.60
8214;DHT22;4148;47.974;7.824;2023-03-23T12:44:35;18.50;97.40
8214;DHT22;4148;47.974;7.824;2023-03-23T12:50:10;18.40;97.70
8214;DHT22;4148;47.974;7.824;2023-03-23T12:52:43;18.30;98.70
8214;DHT22;4148;47.974;7.824;2023-03-23T12:55:17;18.20;98.30
8214;DHT22;4148;47.974;7.824;2023-03-23T12:57:50;18.10;99.10
8214;DHT22;4148;47.974;7.824;2023-03-23T13:00:23;18.20;98.30
8214;DHT22;4148;47.974;7.824;2023-03-23T13:02:56;18.20;97.90
8214;DHT22;4148;47.974;7.824;2023-03-23T13:05:35;18.00;98.10
8214;DHT22;4148;47.974;7.824;2023-03-23T13:08:16;18.00;99.10
8214;DHT22;4148;47.974;7.824;2023-03-23T13:10:46;17.90;99.00
8214;DHT22;4148;47.974;7.824;2023-03-23T13:13:17;17.90;98.20
8214;DHT22;4148;47.974;7.824;2023-03-23T13:15:55;17.90;99.00
8214;DHT22;4148;47.974;7.824;2023-03-23T13:18:30;17.90;99.00
8214;DHT22;4148;47.974;7.824;2023-03-23T13:21:07;17.90;98.60
8214;DHT22;4148;47.974;7.824;2023-03-23T13:23:37;17.80;98.10
8214;DHT22;4148;47.974;7.824;2023-03-23T13:26:06;17.80;98.30
8214;DHT22;4148;47.974;7.824;2023-03-23T13:28:54;17.80;99.20
8214;DHT22;4148;47.974;7.824;2023-03-23T13:31:25;17.70;99.50
8214;DHT22;4148;47.974;7.824;2023-03-23T13:34:02;17.70;99.50
8214;DHT22;4148;47.974;7.824;2023-03-23T13:36:33;17.60;99.70
8214;DHT22;4148;47.974;7.824;2023-03-23T13:39:04;17.70;99.70
8214;DHT22;4148;47.974;7.824;2023-03-23T13:41:33;17.70;99.90
8214;DHT22;4148;47.974;7.824;2023-03-23T13:44:17;17.70;99.80
8214;DHT22;4148;47.974;7.824;2023-03-23T13:46:56;17.70;99.90
8214;DHT22;4148;47.974;7.824;2023-03-23T13:49:23;17.80;99.20
8214;DHT22;4148;47.974;7.824;2023-03-23T13:54:44;17.90;99.40
8214;DHT22;4148;47.974;7.824;2023-03-23T13:57:26;17.80;98.00
8214;DHT22;4148;47.974;7.824;2023-03-23T13:59:58;17.80;98.60
8214;DHT22;4148;47.974;7.824;2023-03-23T14:02:34;17.80;98.40
8214;DHT22;4148;47.974;7.824;2023-03-23T14:05:26;17.80;98.40
8214;DHT22;4148;47.974;7.824;2023-03-23T14:07:56;17.80;98.60
8214;DHT22;4148;47.974;7.824;2023-03-23T14:10:31;17.80;98.00
8214;DHT22;4148;47.974;7.824;2023-03-23T14:13:01;17.80;98.70
8214;DHT22;4148;47.974;7.824;2023-03-23T14:15:29;17.60;97.80
8214;DHT22;4148;47.974;7.824;2023-03-23T14:17:58;17.70;97.80
8214;DHT22;4148;47.974;7.824;2023-03-23T14:20:31;17.50;97.90
8214;DHT22;4148;47.974;7.824;2023-03-23T14:22:59;17.50;96.70
8214;DHT22;4148;47.974;7.824;2023-03-23T14:25:28;17.40;97.20
8214;DHT22;4148;47.974;7.824;2023-03-23T14:27:56;17.50;96.60
8214;DHT22;4148;47.974;7.824;2023-03-23T14:30:24;17.40;97.30
8214;DHT22;4148;47.974;7.824;2023-03-23T14:32:52;17.30;97.20
8214;DHT22;4148;47.974;7.824;2023-03-23T14:35:23;17.30;97.80
8214;DHT22;4148;47.974;7.824;2023-03-23T14:37:52;17.30;96.80
8214;DHT22;4148;47.974;7.824;2023-03-23T14:40:19;17.20;97.10
8214;DHT22;4148;47.974;7.824;2023-03-23T14:42:46;17.10;97.10
8214;DHT22;4148;47.974;7.824;2023-03-23T14:45:16;17.10;98.00
8214;DHT22;4148;47.974;7.824;2023-03-23T14:47:45;17.10;97.70
8214;DHT22;4148;47.974;7.824;2023-03-23T14:50:26;17.10;97.90
8214;DHT22;4148;47.974;7.824;2023-03-23T14:52:57;17.00;97.60
8214;DHT22;4148;47.974;7.824;2023-03-23T14:55:24;17.10;98.00
8214;DHT22;4148;47.974;7.824;2023-03-23T14:57:54;17.10;98.40
8214;DHT22;4148;47.974;7.824;2023-03-23T15:00:25;17.00;98.30
8214;DHT22;4148;47.974;7.824;2023-03-23T15:02:56;17.00;98.40
8214;DHT22;4148;47.974;7.824;2023-03-23T15:05:30;17.00;98.80
8214;DHT22;4148;47.974;7.824;2023-03-23T15:08:03;17.10;98.00
8214;DHT22;4148;47.974;7.824;2023-03-23T15:10:30;17.20;98.40
8214;DHT22;4148;47.974;7.824;2023-03-23T15:12:57;17.10;98.80
8214;DHT22;4148;47.974;7.824;2023-03-23T15:15:26;17.20;98.30
8214;DHT22;4148;47.974;7.824;2023-03-23T15:17:54;17.20;98.30
8214;DHT22;4148;47.974;7.824;2023-03-23T15:20:22;17.20;98.40
8214;DHT22;4148;47.974;7.824;2023-03-23T15:22:52;17.30;98.20
8214;DHT22;4148;47.974;7.824;2023-03-23T15:25:21;17.20;98.50
8214;DHT22;4148;47.974;7.824;2023-03-23T15:27:52;17.20;98.40
8214;DHT22;4148;47.974;7.824;2023-03-23T15:30:31;17.20;98.50
8214;DHT22;4148;47.974;7.824;2023-03-23T15:33:03;17.20;98.50
8214;DHT22;4148;47.974;7.824;2023-03-23T15:35:34;17.10;99.00
8214;DHT22;4148;47.974;7.824;2023-03-23T15:38:05;17.10;99.90
8214;DHT22;4148;47.974;7.824;2023-03-23T15:40:34;17.10;98.30
8214;DHT22;4148;47.974;7.824;2023-03-23T15:43:07;17.10;99.10
8214;DHT22;4148;47.974;7.824;2023-03-23T15:45:34;17.00;99.40
8214;DHT22;4148;47.974;7.824;2023-03-23T15:48:11;17.10;98.20
8214;DHT22;4148;47.974;7.824;2023-03-23T15:50:40;17.30;98.00
8214;DHT22;4148;47.974;7.824;2023-03-23T15:53:19;17.20;99.40
8214;DHT22;4148;47.974;7.824;2023-03-23T15:55:46;17.20;98.10
8214;DHT22;4148;47.974;7.824;2023-03-23T15:58:13;17.30;97.70
8214;DHT22;4148;47.974;7.824;2023-03-23T16:00:42;17.30;97.90
8214;DHT22;4148;47.974;7.824;2023-03-23T16:03:17;17.20;98.00
8214;DHT22;4148;47.974;7.824;2023-03-23T16:05:46;17.20;97.90
8214;DHT22;4148;47.974;7.824;2023-03-23T16:08:15;17.10;98.00
8214;DHT22;4148;47.974;7.824;2023-03-23T16:10:43;17.10;97.80
8214;DHT22;4148;47.974;7.824;2023-03-23T16:13:11;17.10;97.70
8214;DHT22;4148;47.974;7.824;2023-03-23T16:15:39;17.10;98.10
8214;DHT22;4148;47.974;7.824;2023-03-23T16:18:15;17.10;97.90
8214;DHT22;4148;47.974;7.824;2023-03-23T16:20:44;17.10;98.40
8214;DHT22;4148;47.974;7.824;2023-03-23T16:23:12;17.10;97.50
8214;DHT22;4148;47.974;7.824;2023-03-23T16:25:41;17.20;97.20
8214;DHT22;4148;47.974;7.824;2023-03-23T16:28:11;17.20;97.60
8214;DHT22;4148;47.974;7.824;2023-03-23T16:30:40;17.10;98.00
8214;DHT22;4148;47.974;7.824;2023-03-23T16:33:09;17.20;98.00
8214;DHT22;4148;47.974;7.824;2023-03-23T16:35:37;17.10;97.90